createdAt,value
2018-10-19T00:02:08.717Z,14.20
2018-10-19T00:04:44.149Z,14.35
2018-10-19T00:07:19.515Z,13.55
2018-10-19T00:09:55.128Z,12.10
2018-10-19T00:12:30.581Z,10.35
2018-10-19T00:15:07.352Z,15.55
2018-10-19T00:17:49.191Z,10.53
2018-10-19T00:20:25.312Z,18.87
2018-10-19T00:23:00.688Z,14.53
2018-10-19T00:25:36.467Z,11.68
2018-10-19T00:28:11.877Z,8.65
2018-10-19T00:30:47.300Z,13.88
2018-10-19T00:33:22.868Z,9.73
2018-10-19T00:35:58.596Z,11.45
2018-10-19T00:38:34.065Z,14.70
2018-10-19T00:41:09.812Z,9.65
2018-10-19T00:43:45.381Z,9.35
2018-10-19T00:46:20.997Z,12.20
2018-10-19T00:48:56.513Z,11.80
2018-10-19T00:51:32.294Z,15.60
2018-10-19T00:54:08.025Z,12.30
2018-10-19T00:56:43.493Z,13.58
2018-10-19T00:59:19.060Z,18.48
2018-10-19T01:01:54.692Z,13.38
2018-10-19T01:04:30.185Z,14.87
2018-10-19T01:07:05.781Z,10.70
2018-10-19T01:09:41.054Z,15.35
2018-10-19T01:12:16.576Z,16.87
2018-10-19T01:14:51.948Z,10.13
2018-10-19T01:17:27.753Z,15.98
2018-10-19T01:20:03.196Z,9.05
2018-10-19T01:22:38.652Z,14.05
2018-10-19T01:25:14.027Z,11.30
2018-10-19T01:27:49.776Z,15.15
2018-10-19T01:30:25.090Z,10.20
2018-10-19T01:33:00.531Z,13.95
2018-10-19T01:35:35.803Z,11.10
2018-10-19T01:38:11.312Z,13.98
2018-10-19T01:40:46.679Z,12.55
2018-10-19T01:43:22.534Z,11.20
2018-10-19T01:45:58.827Z,18.07
2018-10-19T01:48:34.236Z,13.95
2018-10-19T01:51:10.384Z,13.48
2018-10-19T01:53:45.948Z,17.57
2018-10-19T01:56:21.425Z,10.58
2018-10-19T01:58:56.986Z,13.75
2018-10-19T02:01:32.470Z,15.35
2018-10-19T02:04:08.136Z,12.53
2018-10-19T02:06:43.501Z,16.52
2018-10-19T02:09:19.033Z,11.70
2018-10-19T02:11:54.330Z,18.40
2018-10-19T02:14:29.859Z,14.25
2018-10-19T02:17:05.641Z,22.02
2018-10-19T02:19:40.932Z,22.87
2018-10-19T02:22:16.392Z,15.70
2018-10-19T02:24:51.809Z,13.25
2018-10-19T02:27:27.136Z,12.40
2018-10-19T02:30:02.833Z,18.82
2018-10-19T02:32:38.164Z,16.02
2018-10-19T02:35:13.859Z,11.08
2018-10-19T02:37:49.209Z,16.50
2018-10-19T02:40:24.990Z,16.37
2018-10-19T02:43:00.521Z,12.60
2018-10-19T02:45:40.489Z,15.75
2018-10-19T02:48:15.693Z,16.90
2018-10-19T02:50:51.789Z,17.15
2018-10-19T02:53:27.119Z,19.32
2018-10-19T02:56:02.698Z,13.83
2018-10-19T02:58:38.243Z,16.70
2018-10-19T03:01:14.079Z,12.13
2018-10-19T03:03:49.361Z,9.83
2018-10-19T03:06:24.870Z,13.88
2018-10-19T03:09:00.310Z,13.13
2018-10-19T03:11:42.643Z,10.55
2018-10-19T03:14:18.108Z,11.55
2018-10-19T03:16:53.836Z,13.68
2018-10-19T03:19:29.121Z,18.60
2018-10-19T03:22:04.607Z,12.55
2018-10-19T03:24:40.066Z,17.10
2018-10-19T03:27:15.881Z,17.90
2018-10-19T03:29:51.176Z,13.50
2018-10-19T03:32:26.842Z,14.40
2018-10-19T03:35:02.314Z,14.45
2018-10-19T03:37:37.991Z,11.15
2018-10-19T03:40:13.237Z,13.95
2018-10-19T03:42:48.883Z,12.70
2018-10-19T03:45:24.389Z,16.20
2018-10-19T03:48:00.307Z,23.30
2018-10-19T03:50:35.716Z,13.08
2018-10-19T03:53:11.461Z,16.25
2018-10-19T03:55:46.876Z,16.10
2018-10-19T03:58:22.374Z,17.23
2018-10-19T04:00:57.616Z,23.22
2018-10-19T04:03:33.366Z,22.27
2018-10-19T04:06:08.673Z,21.95
2018-10-19T04:08:44.149Z,18.60
2018-10-19T04:11:19.724Z,12.78
2018-10-19T04:13:55.367Z,20.12
2018-10-19T04:16:30.652Z,14.75
2018-10-19T04:19:06.240Z,15.78
2018-10-19T04:21:41.619Z,17.90
2018-10-19T04:24:17.251Z,15.48
2018-10-19T04:26:52.746Z,16.10
2018-10-19T04:29:28.533Z,13.65
2018-10-19T04:32:03.706Z,13.88
2018-10-19T04:34:39.326Z,20.82
2018-10-19T04:37:14.739Z,18.60
2018-10-19T04:39:50.131Z,19.67
2018-10-19T04:42:25.784Z,10.35
2018-10-19T04:45:01.458Z,17.62
2018-10-19T04:47:36.779Z,18.02
2018-10-19T04:50:12.314Z,13.68
2018-10-19T04:52:47.645Z,14.70
2018-10-19T04:55:23.291Z,16.60
2018-10-19T04:57:58.609Z,16.97
2018-10-19T05:00:34.156Z,23.70
2018-10-19T05:03:09.606Z,19.62
2018-10-19T05:05:45.040Z,23.80
2018-10-19T05:08:20.687Z,16.60
2018-10-19T05:10:56.009Z,13.30
2018-10-19T05:13:31.378Z,18.62
2018-10-19T05:16:06.957Z,22.05
2018-10-19T05:18:42.256Z,20.48
2018-10-19T05:21:17.952Z,15.38
2018-10-19T05:23:53.421Z,16.45
2018-10-19T05:26:28.952Z,25.17
2018-10-19T05:29:04.433Z,34.25
2018-10-19T05:31:40.054Z,15.55
2018-10-19T05:34:15.395Z,16.15
2018-10-19T05:36:51.036Z,35.55
2018-10-19T05:39:26.426Z,17.30
2018-10-19T05:42:02.125Z,13.90
2018-10-19T05:44:37.901Z,13.45
2018-10-19T05:47:13.552Z,16.35
2018-10-19T05:49:48.791Z,18.23
2018-10-19T05:52:24.246Z,18.65
2018-10-19T05:54:59.777Z,23.20
2018-10-19T05:57:35.621Z,18.65
2018-10-19T06:00:11.746Z,23.42
2018-10-19T06:02:47.556Z,22.10
2018-10-19T06:05:22.937Z,17.10
2018-10-19T06:07:58.543Z,12.75
2018-10-19T06:10:33.825Z,18.25
2018-10-19T06:13:09.237Z,17.67
2018-10-19T06:15:44.738Z,22.27
2018-10-19T06:18:20.046Z,14.85
2018-10-19T06:20:55.562Z,17.40
2018-10-19T06:23:31.162Z,18.87
2018-10-19T06:26:06.885Z,16.12
2018-10-19T06:28:42.152Z,18.77
2018-10-19T06:31:17.771Z,16.50
2018-10-19T06:33:53.434Z,17.45
2018-10-19T06:36:28.762Z,21.55
2018-10-19T06:39:06.555Z,13.68
2018-10-19T06:41:41.900Z,19.65
2018-10-19T06:44:17.632Z,14.95
2018-10-19T06:46:53.130Z,19.42
2018-10-19T06:49:28.650Z,22.05
2018-10-19T06:52:04.035Z,16.77
2018-10-19T06:54:39.637Z,14.58
2018-10-19T06:57:15.146Z,16.70
2018-10-19T06:59:50.544Z,19.95
2018-10-19T07:02:25.989Z,21.23
2018-10-19T07:05:01.786Z,25.72
2018-10-19T07:07:37.376Z,12.93
2018-10-19T07:10:12.998Z,21.15
2018-10-19T07:12:48.386Z,22.73
2018-10-19T07:15:23.988Z,21.17
2018-10-19T07:17:59.547Z,18.00
2018-10-19T07:20:35.188Z,20.85
2018-10-19T07:23:10.743Z,16.42
2018-10-19T07:25:46.181Z,27.02
2018-10-19T07:28:21.675Z,25.20
2018-10-19T07:30:57.225Z,18.45
2018-10-19T07:33:32.644Z,23.07
2018-10-19T07:36:08.165Z,18.45
2018-10-19T07:38:43.452Z,16.20
2018-10-19T07:41:19.162Z,19.87
2018-10-19T07:43:54.843Z,14.55
2018-10-19T07:46:30.668Z,23.27
2018-10-19T07:49:06.151Z,15.98
2018-10-19T07:51:41.660Z,14.47
2018-10-19T07:54:23.039Z,18.62
2018-10-19T07:56:58.525Z,20.37
2018-10-19T07:59:33.980Z,14.07
2018-10-19T08:02:09.660Z,22.42
2018-10-19T08:04:45.209Z,15.75
2018-10-19T08:07:20.674Z,15.95
2018-10-19T08:09:56.085Z,11.83
2018-10-19T08:12:31.892Z,15.08
2018-10-19T08:15:08.425Z,17.25
2018-10-19T08:17:43.995Z,18.82
2018-10-19T08:20:19.455Z,26.12
2018-10-19T08:22:55.240Z,17.87
2018-10-19T08:25:37.234Z,19.85
2018-10-19T08:28:13.867Z,14.00
2018-10-19T08:30:49.380Z,12.58
2018-10-19T08:33:25.189Z,15.40
2018-10-19T08:36:00.944Z,16.60
2018-10-19T08:38:36.463Z,16.23
2018-10-19T08:41:11.921Z,17.20
2018-10-19T08:43:47.550Z,19.32
2018-10-19T08:46:28.134Z,19.60
2018-10-19T08:49:03.917Z,18.43
2018-10-19T08:51:40.037Z,14.68
2018-10-19T08:54:22.041Z,18.32
2018-10-19T08:56:57.807Z,23.80
2018-10-19T08:59:33.137Z,14.10
2018-10-19T09:02:08.673Z,19.37
2018-10-19T09:04:44.860Z,15.83
2018-10-19T09:07:20.421Z,15.58
2018-10-19T09:09:55.897Z,21.07
2018-10-19T09:12:31.415Z,19.32
2018-10-19T09:15:07.689Z,16.70
2018-10-19T09:17:43.213Z,12.37
2018-10-19T09:20:18.949Z,16.02
2018-10-19T09:22:54.499Z,23.95
2018-10-19T09:25:29.848Z,25.23
2018-10-19T09:28:05.377Z,12.63
2018-10-19T09:30:41.349Z,15.25
2018-10-19T09:33:16.789Z,16.25
2018-10-19T09:35:52.211Z,20.40
2018-10-19T09:38:27.581Z,14.23
2018-10-19T09:41:03.372Z,14.85
2018-10-19T09:43:38.905Z,12.00
2018-10-19T09:46:14.429Z,12.80
2018-10-19T09:48:49.850Z,11.85
2018-10-19T09:51:25.313Z,11.00
2018-10-19T09:54:00.546Z,19.12
2018-10-19T09:56:36.117Z,11.80
2018-10-19T09:59:11.414Z,14.63
2018-10-19T10:01:47.079Z,19.77
2018-10-19T10:04:22.226Z,12.15
2018-10-19T10:06:57.829Z,7.92
2018-10-19T10:09:33.159Z,11.55
2018-10-19T10:12:08.773Z,11.15
2018-10-19T10:14:44.205Z,11.30
2018-10-19T10:17:19.889Z,12.78
2018-10-19T10:19:55.466Z,10.75
2018-10-19T10:22:31.069Z,10.85
2018-10-19T10:25:08.182Z,7.60
2018-10-19T10:27:43.906Z,21.00
2018-10-19T10:30:19.157Z,9.95
2018-10-19T10:32:54.907Z,11.50
2018-10-19T10:35:30.467Z,9.23
2018-10-19T10:38:06.619Z,10.68
2018-10-19T10:40:42.083Z,14.13
2018-10-19T10:45:52.869Z,9.35
2018-10-19T10:48:28.489Z,16.23
2018-10-19T10:51:03.689Z,17.90
2018-10-19T10:53:39.188Z,10.75
2018-10-19T10:56:14.581Z,7.08
2018-10-19T10:58:50.179Z,8.53
2018-10-19T11:01:25.491Z,11.70
2018-10-19T11:04:01.204Z,13.58
2018-10-19T11:06:36.594Z,15.28
2018-10-19T11:09:12.833Z,11.68
2018-10-19T11:11:48.341Z,12.65
2018-10-19T11:14:24.886Z,8.63
2018-10-19T11:17:00.570Z,12.65
2018-10-19T11:19:36.592Z,9.65
2018-10-19T11:22:11.938Z,11.97
2018-10-19T11:24:47.486Z,15.85
2018-10-19T11:27:22.746Z,11.55
2018-10-19T11:29:58.476Z,9.40
2018-10-19T11:32:33.912Z,8.45
2018-10-19T11:35:09.881Z,11.10
2018-10-19T11:37:45.337Z,11.68
2018-10-19T11:40:27.621Z,15.45
2018-10-19T11:43:03.130Z,9.25
2018-10-19T11:45:39.453Z,10.13
2018-10-19T11:48:14.819Z,11.65
2018-10-19T11:50:50.449Z,11.03
2018-10-19T11:53:25.708Z,8.98
2018-10-19T11:56:01.229Z,10.98
2018-10-19T11:58:36.429Z,8.95
2018-10-19T12:01:12.104Z,11.25
2018-10-19T12:03:47.415Z,9.68
2018-10-19T12:06:23.118Z,11.03
2018-10-19T12:08:58.441Z,9.08
2018-10-19T12:11:33.877Z,9.90
2018-10-19T12:14:09.636Z,7.85
2018-10-19T12:16:45.204Z,6.80
2018-10-19T12:19:20.608Z,5.95
2018-10-19T12:21:56.192Z,16.60
2018-10-19T12:24:31.680Z,8.33
2018-10-19T12:27:07.314Z,5.87
2018-10-19T12:29:43.381Z,9.00
2018-10-19T12:32:18.814Z,10.05
2018-10-19T12:34:54.521Z,9.23
2018-10-19T12:37:30.593Z,19.55
2018-10-19T12:40:07.217Z,6.97
2018-10-19T12:42:43.463Z,11.85
2018-10-19T16:08:19.575Z,8.98
2018-10-19T16:10:55.120Z,8.43
2018-10-19T16:13:30.594Z,8.15
2018-10-19T16:16:06.372Z,11.90
2018-10-19T16:18:42.232Z,8.93
2018-10-19T16:21:18.144Z,12.30
2018-10-19T16:23:53.310Z,7.10
2018-10-19T16:26:28.771Z,10.68
2018-10-19T16:29:04.261Z,11.28
2018-10-19T16:31:39.698Z,21.75
2018-10-19T16:34:15.878Z,15.65
2018-10-19T16:36:51.263Z,14.33
2018-10-19T16:39:26.748Z,12.40
2018-10-19T16:42:02.386Z,8.58
2018-10-19T16:44:38.142Z,9.25
2018-10-19T16:47:13.637Z,16.27
2018-10-19T16:49:48.976Z,17.10
2018-10-19T16:52:24.638Z,12.00
2018-10-19T16:55:00.018Z,13.05
2018-10-19T16:57:35.542Z,8.73
2018-10-19T17:00:11.512Z,7.28
2018-10-19T17:02:47.090Z,13.32
2018-10-19T17:05:22.589Z,22.00
2018-10-19T17:07:58.032Z,19.57
2018-10-19T17:10:33.237Z,14.53
2018-10-19T17:13:08.834Z,17.00
2018-10-19T17:15:44.280Z,13.32
2018-10-19T17:18:19.823Z,21.80
2018-10-19T17:20:55.008Z,20.60
2018-10-19T17:23:30.846Z,40.55
2018-10-19T17:26:07.199Z,27.37
2018-10-19T17:28:42.829Z,25.68
2018-10-19T17:31:18.446Z,25.45
2018-10-19T17:33:54.038Z,32.83
2018-10-19T17:36:29.381Z,41.25
2018-10-19T17:39:07.011Z,15.53
2018-10-19T17:41:42.277Z,33.35
2018-10-19T17:44:18.035Z,23.52
2018-10-19T17:46:53.280Z,30.40
2018-10-19T17:49:29.153Z,30.25
2018-10-19T17:52:04.574Z,49.85
2018-10-19T17:54:40.149Z,42.70
2018-10-19T17:57:15.637Z,29.25
2018-10-19T17:59:51.162Z,42.45
2018-10-19T18:02:26.608Z,30.80
2018-10-19T18:05:02.939Z,35.10
2018-10-19T18:07:38.837Z,21.87
2018-10-19T18:10:14.574Z,21.73
2018-10-19T18:12:50.035Z,30.90
2018-10-19T18:15:25.974Z,20.90
2018-10-19T18:18:01.292Z,17.60
2018-10-19T18:20:36.868Z,19.77
2018-10-19T18:23:12.411Z,23.05
2018-10-19T18:25:47.846Z,26.02
2018-10-19T18:28:23.978Z,36.38
2018-10-19T18:30:59.536Z,26.70
2018-10-19T18:33:34.725Z,32.33
2018-10-19T18:36:10.345Z,34.45
2018-10-19T18:38:45.755Z,26.57
2018-10-19T18:41:21.267Z,21.10
2018-10-19T18:43:56.709Z,21.85
2018-10-19T18:46:32.447Z,16.30
2018-10-19T18:49:09.181Z,24.57
2018-10-19T18:51:44.915Z,26.05
2018-10-19T18:54:20.277Z,26.68
2018-10-19T18:56:55.790Z,21.60
2018-10-19T18:59:31.277Z,20.00
2018-10-19T19:02:06.848Z,22.77
2018-10-19T19:04:42.096Z,30.20
2018-10-19T19:07:17.632Z,34.55
2018-10-19T19:09:58.286Z,28.38
2018-10-19T19:12:34.054Z,29.45
2018-10-19T19:15:10.045Z,27.50
2018-10-19T19:17:45.870Z,18.20
2018-10-19T19:20:28.977Z,34.80
2018-10-19T19:23:04.573Z,34.73
2018-10-19T19:25:45.314Z,39.63
2018-10-19T19:28:21.057Z,25.77
2018-10-19T19:30:56.738Z,34.55
2018-10-19T19:33:37.785Z,20.30
2018-10-19T19:36:13.144Z,27.37
2018-10-19T19:38:48.897Z,27.02
2018-10-19T19:41:29.672Z,17.60
2018-10-19T19:44:05.250Z,16.95
2018-10-19T19:46:40.659Z,26.68
2018-10-19T19:49:21.587Z,20.37
2018-10-19T19:51:56.959Z,25.17
2018-10-19T19:54:32.621Z,34.38
2018-10-19T19:57:07.905Z,27.02
2018-10-19T19:59:43.398Z,44.67
2018-10-19T20:02:18.930Z,22.90
2018-10-19T20:04:54.755Z,38.13
2018-10-19T20:07:30.181Z,27.02
2018-10-19T20:10:07.538Z,30.08
2018-10-19T20:12:42.873Z,56.30
2018-10-19T20:15:18.558Z,38.15
2018-10-19T20:17:53.891Z,29.85
2018-10-19T20:20:35.977Z,32.83
2018-10-19T20:23:11.415Z,30.70
2018-10-19T20:25:47.172Z,36.38
2018-10-19T20:28:22.540Z,26.33
2018-10-19T20:30:58.265Z,20.68
2018-10-19T20:33:33.637Z,18.60
2018-10-19T20:36:09.386Z,22.17
2018-10-19T20:38:44.776Z,17.85
2018-10-19T20:41:20.285Z,32.05
2018-10-19T20:43:55.832Z,32.20
2018-10-19T20:46:31.549Z,22.00
2018-10-19T20:49:07.058Z,26.17
2018-10-19T20:51:42.748Z,28.30
2018-10-19T20:54:18.286Z,31.80
2018-10-19T20:56:53.849Z,39.90
2018-10-19T20:59:29.098Z,37.98
2018-10-19T21:02:04.602Z,40.75
2018-10-19T21:04:40.005Z,35.33
2018-10-19T21:07:15.670Z,37.25
2018-10-19T21:09:50.912Z,55.85
2018-10-19T21:12:26.618Z,46.23
2018-10-19T21:15:01.819Z,66.72
2018-10-19T21:17:37.739Z,56.23
2018-10-19T21:20:13.640Z,70.57
2018-10-19T21:22:49.045Z,57.05
2018-10-19T21:25:24.541Z,43.83
2018-10-19T21:27:59.922Z,42.95
2018-10-19T21:30:35.358Z,50.95
2018-10-19T21:33:10.877Z,48.50
2018-10-19T21:35:46.505Z,61.83
2018-10-19T21:38:21.986Z,43.30
2018-10-19T21:40:57.563Z,44.95
2018-10-19T21:43:33.012Z,28.83
2018-10-19T21:46:08.504Z,38.80
2018-10-19T21:48:43.988Z,65.12
2018-10-19T21:51:19.289Z,47.58
2018-10-19T21:53:55.073Z,22.85
2018-10-19T21:56:30.302Z,41.18
2018-10-19T21:59:05.799Z,36.40
2018-10-19T22:01:41.352Z,21.68
2018-10-19T22:04:16.960Z,24.32
2018-10-19T22:06:52.521Z,47.70
2018-10-19T22:09:28.066Z,64.20
2018-10-19T22:12:03.401Z,56.55
2018-10-19T22:14:39.147Z,54.95
2018-10-19T22:17:14.523Z,54.00
2018-10-19T22:19:50.444Z,45.75
2018-10-19T22:22:25.842Z,55.70
2018-10-19T22:25:01.286Z,28.65
2018-10-19T22:27:36.646Z,22.95
2018-10-19T22:30:12.137Z,43.73
2018-10-19T22:32:47.361Z,47.70
2018-10-19T22:35:23.015Z,28.10
2018-10-19T22:37:58.249Z,48.02
2018-10-19T22:40:33.659Z,20.80
2018-10-19T22:43:09.097Z,32.70
2018-10-19T22:45:45.785Z,24.75
2018-10-19T22:48:21.444Z,60.10
2018-10-19T22:50:56.912Z,60.63
2018-10-19T22:53:32.270Z,37.05
2018-10-19T22:56:07.809Z,66.00
2018-10-19T22:58:43.176Z,49.53
2018-10-19T23:01:18.633Z,55.33
2018-10-19T23:03:54.243Z,46.90
2018-10-19T23:06:29.889Z,60.17
2018-10-19T23:09:08.195Z,47.88
2018-10-19T23:11:43.766Z,66.97
2018-10-19T23:14:19.171Z,62.85
2018-10-19T23:16:54.871Z,55.55
2018-10-19T23:19:30.411Z,55.25
2018-10-19T23:22:06.256Z,38.60
2018-10-19T23:24:41.733Z,25.70
2018-10-19T23:27:17.293Z,45.92
2018-10-19T23:29:52.612Z,79.27
2018-10-19T23:32:28.206Z,51.18
2018-10-19T23:35:04.038Z,57.30
2018-10-19T23:37:39.796Z,60.70
2018-10-19T23:40:15.128Z,40.58
2018-10-19T23:42:50.638Z,57.80
2018-10-19T23:45:26.101Z,54.75
2018-10-19T23:48:01.745Z,55.58
2018-10-19T23:50:37.173Z,68.00
2018-10-19T23:53:12.680Z,65.00
2018-10-19T23:55:47.968Z,53.87
2018-10-19T23:58:23.822Z,65.50
